Time;durP1;ratioP1;P1;durP2;ratioP2;P2;SDS_P1;SDS_P2;PMS_P1;PMS_P2;Temp;Humidity;BMP_temperature;BMP_pressure;BME280_temperature;BME280_humidity;BME280_pressure;Samples;Min_cycle;Max_cycle;Signal;HPM_P1;HPM_P2
2021/06/07 00:00:06;;;;;;;;;;;;;;;20.42;71.63;100891.91;5047099;28;19920;-83
2021/06/07 00:02:57;;;;;;;;;;;;;;;20.34;71.49;100890.22;5054518;28;20292;-84
2021/06/07 00:05:42;;;;;;;;;;;;;;;20.28;71.62;100888.94;5021817;28;19913;-83
2021/06/07 00:08:26;;;;;;;;;;;;;;;20.32;72.07;100889.00;5037930;28;19946;-85
2021/06/07 00:11:12;;;;;;;;;;;;;;;20.32;71.73;100889.81;5032672;28;19913;-84
2021/06/07 00:13:57;;;;;;;;;;;;;;;20.29;72.45;100893.31;5039452;28;19916;-82
2021/06/07 00:16:41;;;;;;;;;;;;;;;20.25;72.49;100892.47;5006636;28;20642;-82
2021/06/07 00:19:27;;;;;;;;;;;;;;;20.45;71.36;100896.69;5026039;28;19913;-81
2021/06/07 00:22:11;;;;;;;;;;;;;;;20.39;71.52;100891.88;5038850;28;19913;-84
2021/06/07 00:24:56;;;;;;;;;;;;;;;20.35;71.49;100891.84;5025537;28;19913;-82
2021/06/07 00:27:40;;;;;;;;;;;;;;;20.62;70.61;100894.50;5028323;28;20373;-81
2021/06/07 00:30:25;;;;;;;;;;;;;;;20.69;70.68;100900.88;5035825;28;20321;-85
2021/06/07 00:33:10;;;;;;;;;;;;;;;20.74;69.61;100895.00;5043440;28;19917;-85
2021/06/07 00:35:55;;;;;;;;;;;;;;;20.69;69.16;100883.50;5075213;28;19912;-85
2021/06/07 00:38:39;;;;;;;;;;;;;;;20.79;68.83;100889.13;5038836;28;19913;-85
2021/06/07 00:41:24;;;;;;;;;;;;;;;21.17;68.40;100887.94;5048890;28;19920;-84
2021/06/07 00:44:10;;;;;;;;;;;;;;;21.44;66.08;100884.97;5017427;28;19913;-84
2021/06/07 00:46:55;;;;;;;;;;;;;;;21.46;65.73;100888.16;5019821;28;19932;-85
2021/06/07 00:49:41;;;;;;;;;;;;;;;21.73;65.17;100881.22;5045333;28;19917;-84
2021/06/07 00:52:26;;;;;;;;;;;;;;;21.70;64.47;100882.78;5033085;28;20357;-82
2021/06/07 00:55:11;;;;;;;;;;;;;;;21.73;64.52;100887.56;5021059;28;20451;-81
2021/06/07 00:57:56;;;;;;;;;;;;;;;21.60;64.28;100888.25;5040421;28;19913;-82
2021/06/07 01:00:41;;;;;;;;;;;;;;;21.41;64.92;100888.50;5027873;28;20496;-80
2021/06/07 01:03:26;;;;;;;;;;;;;;;21.20;66.06;100884.41;5029445;28;19913;-80
2021/06/07 01:09:35;;;;;;;;;;;;;;;20.91;67.17;100893.59;5040413;28;19917;-83
2021/06/07 01:12:21;;;;;;;;;;;;;;;20.97;66.73;100886.56;5037603;28;19913;-82
2021/06/07 01:15:10;;;;;;;;;;;;;;;20.87;67.17;100890.81;5048847;28;19921;-82
2021/06/07 01:18:03;;;;;;;;;;;;;;;20.77;67.76;100885.97;5030562;28;19913;-82
2021/06/07 01:21:05;;;;;;;;;;;;;;;20.78;67.69;100886.75;5036691;28;19917;-83
2021/06/07 01:23:53;;;;;;;;;;;;;;;20.70;68.28;100890.63;5023450;28;20344;-80
2021/06/07 01:26:37;;;;;;;;;;;;;;;20.64;68.66;100881.09;5023795;28;19917;-82
2021/06/07 01:29:21;;;;;;;;;;;;;;;20.62;68.86;100883.44;5031051;28;19917;-83
2021/06/07 01:32:07;;;;;;;;;;;;;;;20.54;68.82;100879.78;5034821;28;19944;-82
2021/06/07 01:34:52;;;;;;;;;;;;;;;20.38;70.23;100880.00;5024529;28;19912;-81
2021/06/07 01:37:37;;;;;;;;;;;;;;;20.10;71.48;100876.91;5015582;28;19916;-81
2021/06/07 01:40:34;;;;;;;;;;;;;;;20.26;71.11;100871.19;5024158;28;19931;-83
2021/06/07 01:43:19;;;;;;;;;;;;;;;20.37;70.47;100863.81;5040706;28;19916;-82
2021/06/07 01:46:03;;;;;;;;;;;;;;;20.35;71.07;100863.41;5035356;28;19912;-83
2021/06/07 01:48:47;;;;;;;;;;;;;;;20.30;71.10;100860.97;5019783;28;19921;-82
2021/06/07 01:51:32;;;;;;;;;;;;;;;20.05;72.98;100860.66;5038952;28;19921;-82
2021/06/07 01:54:16;;;;;;;;;;;;;;;19.91;73.69;100850.22;5040225;28;19912;-82
2021/06/07 01:57:01;;;;;;;;;;;;;;;19.96;73.53;100852.66;5045098;28;19913;-82
2021/06/07 01:59:45;;;;;;;;;;;;;;;19.98;73.40;100852.28;5013872;28;19913;-84
2021/06/07 02:02:29;;;;;;;;;;;;;;;20.05;72.79;100852.38;5027259;28;20301;-82
2021/06/07 02:05:16;;;;;;;;;;;;;;;20.14;72.33;100852.88;5033288;28;19913;-81
2021/06/07 02:08:04;;;;;;;;;;;;;;;20.16;72.84;100852.50;5016681;28;20293;-82
2021/06/07 02:10:51;;;;;;;;;;;;;;;20.16;72.45;100849.75;5017301;28;20393;-81
2021/06/07 02:13:36;;;;;;;;;;;;;;;20.20;72.40;100845.06;5047307;28;19917;-83
2021/06/07 02:16:21;;;;;;;;;;;;;;;20.23;72.61;100839.56;5028972;28;19913;-83
2021/06/07 02:19:08;;;;;;;;;;;;;;;20.29;72.90;100843.59;5034416;28;19913;-84
2021/06/07 02:21:53;;;;;;;;;;;;;;;20.34;72.39;100840.53;5042115;28;19913;-83
2021/06/07 02:24:38;;;;;;;;;;;;;;;20.30;71.97;100841.63;5023050;28;19913;-85
2021/06/07 02:27:23;;;;;;;;;;;;;;;20.36;71.55;100849.22;5041685;28;19913;-82
2021/06/07 02:30:09;;;;;;;;;;;;;;;20.37;71.64;100852.75;5053763;28;19920;-82
2021/06/07 02:32:55;;;;;;;;;;;;;;;20.37;70.97;100850.00;5035339;28;20369;-80
2021/06/07 02:35:40;;;;;;;;;;;;;;;20.36;71.05;100846.47;5033419;28;20369;-80
2021/06/07 02:38:25;;;;;;;;;;;;;;;20.33;70.74;100854.69;5030996;28;19913;-81
2021/06/07 02:41:09;;;;;;;;;;;;;;;20.52;70.52;100856.50;5052611;28;19913;-81
2021/06/07 02:43:54;;;;;;;;;;;;;;;20.52;70.85;100856.50;5035654;28;19913;-81
2021/06/07 02:46:39;;;;;;;;;;;;;;;20.53;70.07;100858.06;5046397;28;19913;-80
2021/06/07 02:49:23;;;;;;;;;;;;;;;20.49;70.29;100860.78;5030054;28;19917;-81
2021/06/07 02:52:09;;;;;;;;;;;;;;;20.39;70.62;100848.47;5029577;28;19913;-81
2021/06/07 02:54:53;;;;;;;;;;;;;;;20.34;70.83;100851.56;5028926;28;19916;-81
2021/06/07 02:57:37;;;;;;;;;;;;;;;20.33;70.47;100852.72;5025921;28;19924;-80
2021/06/07 03:00:24;;;;;;;;;;;;;;;20.25;71.00;100855.78;5020105;28;19920;-79
2021/06/07 03:03:10;;;;;;;;;;;;;;;20.04;72.55;100857.09;5028109;28;20384;-82
2021/06/07 03:05:58;;;;;;;;;;;;;;;20.05;73.03;100857.91;5033835;28;20328;-81
2021/06/07 03:08:42;;;;;;;;;;;;;;;20.11;72.66;100856.41;5043137;28;19916;-84
2021/06/07 03:11:26;;;;;;;;;;;;;;;20.21;72.28;100860.47;5048143;28;20393;-82
2021/06/07 03:14:11;;;;;;;;;;;;;;;20.23;72.08;100864.41;5045606;28;19912;-82
2021/06/07 03:16:55;;;;;;;;;;;;;;;20.34;71.37;100872.88;5026209;28;19913;-82
2021/06/07 03:19:39;;;;;;;;;;;;;;;20.39;71.64;100880.81;5035185;28;19913;-83
2021/06/07 03:22:25;;;;;;;;;;;;;;;20.23;72.80;100878.22;5020043;28;19912;-83
2021/06/07 03:25:10;;;;;;;;;;;;;;;20.19;72.96;100885.69;5046578;28;19912;-81
2021/06/07 03:27:54;;;;;;;;;;;;;;;20.18;72.72;100895.13;5033107;28;19913;-83
2021/06/07 03:30:39;;;;;;;;;;;;;;;20.37;71.84;100899.72;5039017;28;20301;-85
2021/06/07 03:33:24;;;;;;;;;;;;;;;20.22;71.88;100887.69;5031820;28;19913;-86
2021/06/07 03:36:11;;;;;;;;;;;;;;;20.20;71.47;100892.00;5030778;28;19924;-87
2021/06/07 03:38:56;;;;;;;;;;;;;;;20.47;71.32;100888.78;5043900;28;19912;-86
2021/06/07 03:41:40;;;;;;;;;;;;;;;20.71;70.34;100887.50;5042349;28;19913;-85
2021/06/07 03:44:26;;;;;;;;;;;;;;;21.06;68.62;100886.22;5027905;28;19913;-82
2021/06/07 03:47:11;;;;;;;;;;;;;;;21.15;67.40;100893.06;5041457;28;19913;-86
2021/06/07 03:49:56;;;;;;;;;;;;;;;21.07;68.05;100901.66;5030456;28;19924;-83
2021/06/07 03:52:40;;;;;;;;;;;;;;;20.73;69.28;100903.66;5021094;28;19913;-84
2021/06/07 03:55:25;;;;;;;;;;;;;;;20.69;69.45;100902.84;5028448;28;20291;-83
2021/06/07 03:58:10;;;;;;;;;;;;;;;20.47;69.03;100910.91;5031360;28;19921;-82
2021/06/07 04:00:55;;;;;;;;;;;;;;;20.54;69.68;100909.41;5035001;28;19913;-82
2021/06/07 04:03:39;;;;;;;;;;;;;;;20.35;69.96;100913.94;5022082;28;19913;-83
2021/06/07 04:06:25;;;;;;;;;;;;;;;20.34;70.00;100912.34;5031001;28;19913;-83
2021/06/07 04:09:09;;;;;;;;;;;;;;;20.41;70.05;100920.72;5037189;28;20388;-82
2021/06/07 04:11:54;;;;;;;;;;;;;;;20.75;69.01;100921.47;5038869;28;19913;-82
2021/06/07 04:14:38;;;;;;;;;;;;;;;20.65;68.73;100924.94;5019981;28;19913;-81
2021/06/07 04:17:23;;;;;;;;;;;;;;;20.70;68.88;100932.09;5023354;28;19925;-82
2021/06/07 04:20:09;;;;;;;;;;;;;;;20.46;66.76;100928.66;5028762;28;19917;-81
2021/06/07 04:22:55;;;;;;;;;;;;;;;20.53;67.24;100946.47;5023021;28;19920;-81
2021/06/07 04:25:39;;;;;;;;;;;;;;;20.57;67.66;100939.06;5030927;28;19913;-82
2021/06/07 04:28:25;;;;;;;;;;;;;;;20.66;67.22;100939.53;5036622;28;19920;-82
2021/06/07 04:31:09;;;;;;;;;;;;;;;20.61;67.56;100939.88;5044963;28;19913;-80
2021/06/07 04:33:53;;;;;;;;;;;;;;;20.46;68.99;100942.47;5031467;28;19912;-82
2021/06/07 04:36:39;;;;;;;;;;;;;;;20.51;67.26;100937.78;5034839;28;19916;-83
2021/06/07 04:39:23;;;;;;;;;;;;;;;20.57;67.69;100944.56;5035070;28;19913;-82
2021/06/07 04:42:08;;;;;;;;;;;;;;;20.46;68.13;100936.97;5045543;28;19913;-82
2021/06/07 04:44:52;;;;;;;;;;;;;;;20.84;67.49;100946.03;5031817;28;19913;-82
2021/06/07 04:47:37;;;;;;;;;;;;;;;21.13;66.61;100947.16;5052317;28;19912;-83
2021/06/07 04:50:23;;;;;;;;;;;;;;;20.89;68.73;100945.72;5043492;28;19917;-80
2021/06/07 04:53:09;;;;;;;;;;;;;;;20.51;70.38;100946.88;5051590;28;19913;-83
2021/06/07 04:55:54;;;;;;;;;;;;;;;20.47;70.43;100933.00;5050263;28;20397;-82
2021/06/07 04:58:41;;;;;;;;;;;;;;;20.77;69.40;100940.47;5023598;28;20320;-82
2021/06/07 05:01:26;;;;;;;;;;;;;;;20.96;68.65;100943.03;5028612;28;19913;-80
2021/06/07 05:04:10;;;;;;;;;;;;;;;21.29;67.31;100948.50;5038775;28;19913;-80
2021/06/07 05:06:55;;;;;;;;;;;;;;;21.48;66.70;100952.22;5027247;28;19913;-79
2021/06/07 05:09:40;;;;;;;;;;;;;;;21.63;66.15;100948.38;5033530;28;19916;-81
2021/06/07 05:12:24;;;;;;;;;;;;;;;21.68;65.76;100954.34;5026408;28;19913;-82
2021/06/07 05:15:09;;;;;;;;;;;;;;;21.81;65.29;100943.75;5034393;28;20300;-82
2021/06/07 05:17:54;;;;;;;;;;;;;;;21.91;64.84;100947.75;5035382;28;19912;-80
2021/06/07 05:20:39;;;;;;;;;;;;;;;21.92;65.01;100950.16;5039248;28;19921;-80
2021/06/07 05:23:24;;;;;;;;;;;;;;;22.01;64.64;100952.59;5038261;28;19912;-82
2021/06/07 05:26:10;;;;;;;;;;;;;;;21.96;64.75;100953.75;5044463;28;19920;-82
2021/06/07 05:28:54;;;;;;;;;;;;;;;22.03;64.48;100955.78;5038085;28;20111;-82
2021/06/07 05:31:40;;;;;;;;;;;;;;;22.02;64.67;100952.22;5038795;28;20377;-81
2021/06/07 05:34:24;;;;;;;;;;;;;;;22.02;64.87;100957.75;5034072;28;19916;-80
2021/06/07 05:37:09;;;;;;;;;;;;;;;21.95;65.18;100954.13;5016158;28;19913;-79
2021/06/07 05:39:54;;;;;;;;;;;;;;;21.84;65.80;100959.56;5052543;28;19917;-81
2021/06/07 05:42:39;;;;;;;;;;;;;;;21.97;65.14;100963.66;5034092;28;19920;-82
2021/06/07 05:45:25;;;;;;;;;;;;;;;22.03;65.06;100966.88;5043904;28;19921;-84
2021/06/07 05:48:09;;;;;;;;;;;;;;;22.02;64.88;100966.06;5038145;28;20304;-82
2021/06/07 05:50:55;;;;;;;;;;;;;;;22.05;65.23;100970.03;5029503;28;20293;-82
2021/06/07 05:53:40;;;;;;;;;;;;;;;22.04;65.04;100974.81;5036455;28;19939;-83
2021/06/07 05:56:24;;;;;;;;;;;;;;;22.03;65.32;100972.41;5024517;28;19912;-80
2021/06/07 05:59:09;;;;;;;;;;;;;;;22.03;65.24;100981.50;5034434;28;20377;-80
2021/06/07 06:01:53;;;;;;;;;;;;;;;22.02;65.06;100982.69;5027413;28;20296;-81
2021/06/07 06:04:40;;;;;;;;;;;;;;;22.03;65.05;100984.28;5037696;28;19917;-80
2021/06/07 06:07:24;;;;;;;;;;;;;;;22.02;64.35;100982.69;5020773;28;19913;-84
2021/06/07 06:10:09;;;;;;;;;;;;;;;22.02;64.91;100979.91;5032519;28;19916;-82
2021/06/07 06:12:54;;;;;;;;;;;;;;;21.99;65.29;100977.13;5016931;28;19913;-84
2021/06/07 06:15:38;;;;;;;;;;;;;;;21.99;65.51;100975.13;5017709;28;19916;-81
2021/06/07 06:18:22;;;;;;;;;;;;;;;22.00;65.60;100979.50;5029355;28;19920;-82
2021/06/07 06:21:08;;;;;;;;;;;;;;;22.02;65.31;100984.66;5020232;28;19917;-81
2021/06/07 06:23:53;;;;;;;;;;;;;;;22.02;65.40;100985.47;5031305;28;20325;-81
2021/06/07 06:26:37;;;;;;;;;;;;;;;22.03;65.62;100989.81;5036154;28;19913;-84
2021/06/07 06:29:23;;;;;;;;;;;;;;;22.04;65.72;100985.09;5028018;28;20369;-84
2021/06/07 06:32:09;;;;;;;;;;;;;;;22.06;65.45;100989.03;5040559;28;19913;-82
2021/06/07 06:34:54;;;;;;;;;;;;;;;22.07;65.25;100976.00;5040852;28;19913;-85
2021/06/07 06:37:40;;;;;;;;;;;;;;;22.10;65.29;100989.06;5051021;28;19912;-84
2021/06/07 06:40:27;;;;;;;;;;;;;;;22.09;65.18;100993.81;5032340;28;19913;-84
2021/06/07 06:43:11;;;;;;;;;;;;;;;22.10;64.64;100991.81;5016826;28;19913;-83
2021/06/07 06:45:55;;;;;;;;;;;;;;;22.11;64.85;100991.44;5035488;28;20007;-81
2021/06/07 06:48:40;;;;;;;;;;;;;;;22.12;64.83;100987.50;5029595;28;19917;-81
2021/06/07 06:51:25;;;;;;;;;;;;;;;22.35;63.85;100992.00;5038001;28;19913;-85
2021/06/07 06:54:10;;;;;;;;;;;;;;;22.44;62.55;100996.00;5015994;28;20507;-82
2021/06/07 06:56:54;;;;;;;;;;;;;;;22.80;61.70;100988.63;5029346;28;19913;-84
2021/06/07 06:59:39;;;;;;;;;;;;;;;23.21;60.51;100999.44;5019775;28;20308;-83
2021/06/07 07:02:23;;;;;;;;;;;;;;;23.40;59.50;100985.16;5036028;28;19912;-85
2021/06/07 07:05:08;;;;;;;;;;;;;;;23.03;59.42;100991.84;5025373;28;19917;-83
2021/06/07 07:07:52;;;;;;;;;;;;;;;23.16;59.94;100994.28;5052301;28;19917;-82
2021/06/07 07:10:38;;;;;;;;;;;;;;;23.66;58.65;101003.44;5055098;28;20392;-84
2021/06/07 07:13:22;;;;;;;;;;;;;;;23.85;57.66;101001.06;5042005;28;19913;-83
2021/06/07 07:16:07;;;;;;;;;;;;;;;23.86;58.34;101005.44;5049419;28;20308;-83
2021/06/07 07:18:51;;;;;;;;;;;;;;;24.17;56.92;101011.34;5039250;28;19913;-83
2021/06/07 07:21:36;;;;;;;;;;;;;;;23.88;58.48;101005.81;5024798;28;20455;-82
2021/06/07 07:24:20;;;;;;;;;;;;;;;24.10;57.48;101003.00;5066461;28;19913;-80
2021/06/07 07:27:05;;;;;;;;;;;;;;;24.15;57.28;101006.16;5055081;28;20392;-80
2021/06/07 07:29:50;;;;;;;;;;;;;;;23.93;58.21;101006.59;5054773;28;20289;-80
2021/06/07 07:32:36;;;;;;;;;;;;;;;24.10;57.75;101011.34;5042724;28;19912;-80
2021/06/07 07:35:21;;;;;;;;;;;;;;;24.29;57.45;101008.94;5036719;28;20308;-83
2021/06/07 07:38:06;;;;;;;;;;;;;;;24.44;57.10;101006.91;5027121;28;19913;-82
2021/06/07 07:40:50;;;;;;;;;;;;;;;24.50;57.42;101008.06;5033131;28;19913;-79
2021/06/07 07:43:34;;;;;;;;;;;;;;;24.39;57.27;101021.22;5019791;28;19913;-82
2021/06/07 07:46:19;;;;;;;;;;;;;;;24.54;55.79;101014.41;5046790;28;19916;-80
2021/06/07 07:49:03;;;;;;;;;;;;;;;24.74;54.56;101016.72;5018988;28;19917;-79
2021/06/07 07:51:48;;;;;;;;;;;;;;;24.71;54.44;101015.53;5047468;28;20351;-77
2021/06/07 07:54:33;;;;;;;;;;;;;;;24.62;54.58;101018.75;5034193;28;19912;-82
2021/06/07 07:57:18;;;;;;;;;;;;;;;24.69;54.67;101013.16;5034089;28;19917;-79
2021/06/07 08:00:05;;;;;;;;;;;;;;;24.80;54.25;101024.22;5024300;28;19912;-81
2021/06/07 08:02:58;;;;;;;;;;;;;;;24.80;54.88;101029.00;5034299;28;20138;-79
2021/06/07 08:05:43;;;;;;;;;;;;;;;24.90;54.80;101020.63;5038142;28;19912;-80
2021/06/07 08:08:28;;;;;;;;;;;;;;;24.98;54.58;101024.97;5025254;28;19913;-81
2021/06/07 08:11:13;;;;;;;;;;;;;;;24.94;54.69;101029.00;5033229;28;19917;-80
2021/06/07 08:13:58;;;;;;;;;;;;;;;24.95;55.02;101019.41;5045255;28;19913;-80
2021/06/07 08:16:42;;;;;;;;;;;;;;;25.15;54.81;101026.06;5028686;28;19921;-81
2021/06/07 08:19:27;;;;;;;;;;;;;;;25.30;54.46;101019.19;5031098;28;20373;-80
2021/06/07 08:22:12;;;;;;;;;;;;;;;25.25;54.44;101033.56;5031429;28;19913;-81
2021/06/07 08:24:56;;;;;;;;;;;;;;;25.61;53.74;101030.53;5024793;28;20305;-80
2021/06/07 08:27:40;;;;;;;;;;;;;;;25.90;52.74;101026.34;5029886;28;19913;-79
2021/06/07 08:30:27;;;;;;;;;;;;;;;26.09;51.99;101025.75;5033864;28;19916;-78
2021/06/07 08:33:12;;;;;;;;;;;;;;;26.12;51.83;101024.91;5031316;28;20595;-78
2021/06/07 08:35:58;;;;;;;;;;;;;;;26.19;51.67;101029.63;5043310;28;20289;-79
2021/06/07 08:38:42;;;;;;;;;;;;;;;26.19;52.07;101029.63;5020949;28;19920;-77
2021/06/07 08:41:29;;;;;;;;;;;;;;;26.31;51.94;101029.91;5030769;28;19917;-78
2021/06/07 08:44:14;;;;;;;;;;;;;;;26.27;52.00;101033.94;5029739;28;19913;-80
2021/06/07 08:46:59;;;;;;;;;;;;;;;26.21;52.08;101033.56;5030041;28;20413;-80
2021/06/07 08:49:43;;;;;;;;;;;;;;;26.31;51.23;101034.72;5033214;28;19917;-82
2021/06/07 08:52:28;;;;;;;;;;;;;;;26.51;50.62;101035.69;5037724;28;19913;-80
2021/06/07 08:55:15;;;;;;;;;;;;;;;26.66;50.47;101037.09;5033106;28;19913;-80
2021/06/07 08:58:04;;;;;;;;;;;;;;;26.55;50.83;101035.63;5018903;28;19921;-80
2021/06/07 09:00:49;;;;;;;;;;;;;;;26.57;50.62;101036.00;5033998;28;19913;-77
2021/06/07 09:03:34;;;;;;;;;;;;;;;26.72;50.22;101040.97;5022031;28;20369;-82
2021/06/07 09:06:38;;;;;;;;;;;;;;;26.76;50.17;101044.53;5028909;28;20397;-85
2021/06/07 09:09:24;;;;;;;;;;;;;;;26.80;50.08;101041.69;5011090;28;19917;-80
2021/06/07 09:12:19;;;;;;;;;;;;;;;26.79;49.60;101040.13;5049268;28;19920;-85
2021/06/07 09:15:04;;;;;;;;;;;;;;;26.56;49.92;101034.44;5028939;28;19912;-81
2021/06/07 09:17:49;;;;;;;;;;;;;;;26.61;49.13;101036.75;5041658;28;19917;-81
2021/06/07 09:20:34;;;;;;;;;;;;;;;26.52;49.92;101034.47;5032646;28;20404;-80
2021/06/07 09:23:20;;;;;;;;;;;;;;;26.39;49.88;101039.78;5018012;28;19916;-82
2021/06/07 09:26:05;;;;;;;;;;;;;;;26.23;50.67;101031.19;5045322;28;19913;-83
2021/06/07 09:28:50;;;;;;;;;;;;;;;26.21;50.86;101027.22;5023896;28;19913;-81
2021/06/07 09:31:36;;;;;;;;;;;;;;;25.50;52.05;101025.03;5031905;28;19913;-84
2021/06/07 09:34:31;;;;;;;;;;;;;;;25.24;52.13;101026.44;5015815;28;19913;-82
2021/06/07 09:37:16;;;;;;;;;;;;;;;25.92;50.12;101032.28;5032924;28;19913;-83
2021/06/07 09:40:18;;;;;;;;;;;;;;;26.34;48.14;101026.31;5031181;28;19913;-83
2021/06/07 09:43:04;;;;;;;;;;;;;;;26.65;47.60;101026.34;5030296;28;19920;-82
2021/06/07 09:45:54;;;;;;;;;;;;;;;26.93;47.01;101028.00;5049960;28;19916;-83
2021/06/07 09:48:39;;;;;;;;;;;;;;;26.42;47.38;101026.22;5019401;28;19917;-82
2021/06/07 09:51:24;;;;;;;;;;;;;;;25.71;49.56;101026.88;5039212;28;19917;-80
2021/06/07 09:54:12;;;;;;;;;;;;;;;25.33;49.54;101023.97;5034906;28;19913;-82
2021/06/07 09:57:01;;;;;;;;;;;;;;;25.33;48.87;101012.84;5034056;28;19913;-83
2021/06/07 09:59:46;;;;;;;;;;;;;;;24.94;49.49;101020.63;5039162;28;19917;-83
2021/06/07 10:02:34;;;;;;;;;;;;;;;24.95;51.81;101013.84;5031792;28;19912;-84
2021/06/07 10:05:34;;;;;;;;;;;;;;;24.80;52.14;101017.88;5034855;28;19917;-84
2021/06/07 10:08:19;;;;;;;;;;;;;;;24.97;50.28;101017.03;5027457;28;20385;-83
2021/06/07 10:11:14;;;;;;;;;;;;;;;24.80;51.90;101023.44;5024739;28;20388;-82
2021/06/07 10:14:05;;;;;;;;;;;;;;;24.28;51.44;101020.44;5031930;28;19917;-80
2021/06/07 10:16:53;;;;;;;;;;;;;;;24.04;53.58;101015.69;5032048;28;19913;-83
2021/06/07 10:22:25;;;;;;;;;;;;;;;23.91;52.49;101006.22;5045323;28;19912;-81
2021/06/07 10:25:10;;;;;;;;;;;;;;;23.78;52.02;101006.59;5035049;28;19917;-83
2021/06/07 10:27:55;;;;;;;;;;;;;;;23.64;52.80;100998.28;5039894;28;19913;-82
2021/06/07 10:30:41;;;;;;;;;;;;;;;23.62;53.17;101003.44;5029378;28;19917;-82
2021/06/07 10:33:33;;;;;;;;;;;;;;;23.60;53.47;101003.06;5045016;28;19913;-80
2021/06/07 10:36:27;;;;;;;;;;;;;;;23.66;54.32;101003.44;5057986;28;20281;-82
2021/06/07 10:39:19;;;;;;;;;;;;;;;23.65;54.27;101001.84;5023027;28;19912;-81
2021/06/07 10:42:09;;;;;;;;;;;;;;;23.66;54.69;101000.69;5032249;28;19924;-81
2021/06/07 10:44:56;;;;;;;;;;;;;;;23.61;53.34;100998.28;5026763;28;19913;-83
2021/06/07 10:47:45;;;;;;;;;;;;;;;23.62;52.71;100992.31;5024663;28;20292;-83
2021/06/07 10:50:31;;;;;;;;;;;;;;;23.66;52.56;100990.38;5022538;28;20715;-81
2021/06/07 10:53:25;;;;;;;;;;;;;;;23.67;52.93;100991.94;5031940;28;19917;-82
2021/06/07 10:56:10;;;;;;;;;;;;;;;23.67;51.34;100997.47;5025634;28;19913;-81
2021/06/07 10:58:55;;;;;;;;;;;;;;;23.69;52.09;101000.66;5025372;28;19912;-85
2021/06/07 11:01:51;;;;;;;;;;;;;;;23.74;52.20;101000.25;5030367;28;20300;-82
2021/06/07 11:04:36;;;;;;;;;;;;;;;23.80;53.35;100998.69;5038896;28;19912;-82
2021/06/07 11:07:21;;;;;;;;;;;;;;;23.79;53.49;100993.50;5023769;28;19913;-83
2021/06/07 11:10:11;;;;;;;;;;;;;;;23.80;52.74;100998.69;5033521;28;20300;-81
2021/06/07 11:12:57;;;;;;;;;;;;;;;23.80;53.47;100990.34;5036914;28;20389;-81
2021/06/07 11:15:53;;;;;;;;;;;;;;;23.88;52.34;100994.69;5036219;28;19913;-81
2021/06/07 11:18:38;;;;;;;;;;;;;;;23.94;51.76;100983.97;5021372;28;19913;-84
2021/06/07 11:21:28;;;;;;;;;;;;;;;23.95;51.25;100976.44;5032166;28;19913;-80
2021/06/07 11:24:26;;;;;;;;;;;;;;;23.97;53.05;100976.84;5041715;28;20381;-81
2021/06/07 11:27:30;;;;;;;;;;;;;;;23.99;51.56;100963.31;5052071;28;19913;-80
2021/06/07 11:30:20;;;;;;;;;;;;;;;24.01;50.95;100969.28;5029491;28;19928;-80
2021/06/07 11:33:07;;;;;;;;;;;;;;;24.05;49.53;100958.94;5044932;28;19913;-80
2021/06/07 11:35:52;;;;;;;;;;;;;;;24.11;49.94;100951.78;5044907;28;19912;-82
2021/06/07 11:38:44;;;;;;;;;;;;;;;24.18;50.79;100943.44;5023264;28;19912;-81
2021/06/07 11:41:41;;;;;;;;;;;;;;;24.27;51.67;100941.84;5021306;28;19924;-80
2021/06/07 11:44:50;;;;;;;;;;;;;;;24.32;51.12;100935.06;5037554;28;19929;-82
2021/06/07 11:47:48;;;;;;;;;;;;;;;24.47;51.65;100938.59;5048083;28;19913;-81
2021/06/07 11:50:37;;;;;;;;;;;;;;;24.53;49.01;100926.63;5036435;28;20489;-82
2021/06/07 11:53:30;;;;;;;;;;;;;;;24.54;49.91;100925.41;5019257;28;19912;-82
2021/06/07 11:56:15;;;;;;;;;;;;;;;24.64;49.67;100923.78;5042362;28;19912;-81
2021/06/07 11:59:00;;;;;;;;;;;;;;;24.62;49.55;100923.41;5044060;28;19913;-82
2021/06/07 12:01:44;;;;;;;;;;;;;;;24.59;49.71;100927.78;5027428;28;20388;-82
2021/06/07 12:04:32;;;;;;;;;;;;;;;24.60;49.65;100914.66;5031395;28;19917;-82
2021/06/07 12:07:17;;;;;;;;;;;;;;;24.55;49.34;100909.53;5042238;28;19912;-82
2021/06/07 12:10:03;;;;;;;;;;;;;;;24.62;49.87;100912.28;5029231;28;19917;-83
2021/06/07 12:12:47;;;;;;;;;;;;;;;24.73;49.43;100912.22;5021100;28;20374;-84
2021/06/07 12:15:34;;;;;;;;;;;;;;;24.78;48.61;100911.78;5029722;28;19912;-83
2021/06/07 12:18:36;;;;;;;;;;;;;;;25.00;48.25;100905.69;5055484;28;19912;-82
2021/06/07 12:21:25;;;;;;;;;;;;;;;25.04;47.98;100909.22;5026202;28;19913;-81
2021/06/07 12:24:14;;;;;;;;;;;;;;;25.19;48.66;100904.38;5039991;28;19912;-82
2021/06/07 12:30:12;;;;;;;;;;;;;;;25.33;47.62;100898.69;5055544;28;19917;-83
2021/06/07 12:32:57;;;;;;;;;;;;;;;25.30;47.58;100891.13;5023553;28;19913;-82
2021/06/07 12:35:41;;;;;;;;;;;;;;;25.22;48.35;100895.19;5023790;28;19913;-85
2021/06/07 12:38:27;;;;;;;;;;;;;;;25.42;47.96;100899.00;5031354;28;19913;-83
2021/06/07 12:41:14;;;;;;;;;;;;;;;25.36;47.08;100895.06;5028581;28;19917;-81
2021/06/07 12:43:58;;;;;;;;;;;;;;;25.59;47.70;100885.34;5030366;28;20373;-83
2021/06/07 12:46:51;;;;;;;;;;;;;;;25.66;46.66;100890.81;5036551;28;19913;-86
2021/06/07 12:49:35;;;;;;;;;;;;;;;25.78;47.01;100893.88;5043977;28;19913;-85
2021/06/07 12:52:20;;;;;;;;;;;;;;;25.84;47.18;100892.22;5038229;28;20312;-84
2021/06/07 12:55:05;;;;;;;;;;;;;;;25.74;46.73;100897.91;5031739;28;19913;-83
2021/06/07 12:57:52;;;;;;;;;;;;;;;25.74;47.55;100897.91;5034047;28;19913;-83
2021/06/07 13:00:37;;;;;;;;;;;;;;;25.83;47.62;100895.41;5030456;28;19913;-83
2021/06/07 13:03:27;;;;;;;;;;;;;;;25.82;47.12;100896.63;5031817;28;19913;-85
2021/06/07 13:06:13;;;;;;;;;;;;;;;25.67;50.09;100897.97;5020001;28;19913;-85
2021/06/07 13:09:04;;;;;;;;;;;;;;;25.53;48.87;100894.09;5028839;28;20389;-83
2021/06/07 13:11:51;;;;;;;;;;;;;;;25.27;51.04;100886.41;5021014;28;20400;-83
2021/06/07 13:14:35;;;;;;;;;;;;;;;25.09;50.83;100899.69;5022558;28;19912;-83
2021/06/07 13:17:20;;;;;;;;;;;;;;;24.76;50.87;100898.28;5016746;28;19913;-85
2021/06/07 13:20:16;;;;;;;;;;;;;;;24.49;52.49;100898.03;5032984;28;19912;-81
2021/06/07 13:23:00;;;;;;;;;;;;;;;24.36;53.18;100894.16;5029639;28;19912;-84
2021/06/07 13:25:45;;;;;;;;;;;;;;;24.29;54.10;100897.75;5044214;28;19913;-85
2021/06/07 13:28:30;;;;;;;;;;;;;;;24.33;53.87;100894.94;5035517;28;19913;-85
2021/06/07 13:31:15;;;;;;;;;;;;;;;24.40;53.70;100908.03;5043340;28;19921;-82
2021/06/07 13:34:10;;;;;;;;;;;;;;;24.31;52.95;100905.69;5015067;28;19921;-82
2021/06/07 13:37:01;;;;;;;;;;;;;;;24.14;52.64;100910.09;5048576;28;20192;-84
2021/06/07 13:39:55;;;;;;;;;;;;;;;24.00;54.04;100904.56;5019512;28;19912;-82
2021/06/07 13:42:41;;;;;;;;;;;;;;;23.88;53.84;100911.34;5038611;28;19912;-82
2021/06/07 13:45:29;;;;;;;;;;;;;;;23.81;54.56;100907.81;5029801;28;19913;-81
2021/06/07 13:48:19;;;;;;;;;;;;;;;23.87;54.66;100907.00;5019589;28;19921;-81
2021/06/07 13:51:05;;;;;;;;;;;;;;;23.96;54.73;100908.56;5032588;28;19916;-83
2021/06/07 13:53:49;;;;;;;;;;;;;;;24.01;53.50;100917.28;5030019;28;20292;-83
2021/06/07 13:56:36;;;;;;;;;;;;;;;23.97;54.17;100924.03;5035214;28;19913;-84
2021/06/07 13:59:21;;;;;;;;;;;;;;;24.04;53.99;100927.59;5013109;28;19913;-82
2021/06/07 14:02:05;;;;;;;;;;;;;;;24.06;54.37;100935.53;5025885;28;19913;-81
2021/06/07 14:04:50;;;;;;;;;;;;;;;24.05;55.01;100931.16;5061518;28;19916;-82
2021/06/07 14:07:35;;;;;;;;;;;;;;;24.00;54.28;100920.47;5035521;28;19912;-81
2021/06/07 14:10:19;;;;;;;;;;;;;;;24.01;54.10;100922.03;5034601;28;20303;-83
2021/06/07 14:13:04;;;;;;;;;;;;;;;23.99;54.61;100914.09;5036159;28;19912;-80
2021/06/07 14:15:49;;;;;;;;;;;;;;;23.97;55.26;100921.28;5040628;28;19917;-80
2021/06/07 14:18:34;;;;;;;;;;;;;;;23.88;55.64;100913.34;5032339;28;19913;-80
2021/06/07 14:21:30;;;;;;;;;;;;;;;23.83;56.08;100906.22;5034803;28;20377;-81